Bookmark and Share
Track history (hours):
 

Gas Grouper

Last reported at 2014-Apr-19 16:05 UTC. Time now 2014-Apr-19 19:34 UTC.
Position N 39°42' E 025°45'.

Length 174 m; draft 6.4 m.

Type: Tanker. MMSI: 538003910.

NotesDate/timePositionNaut miles runAvg speedWind from/ knotsBaromVisibWave heightAir tempDewpointWater temp
2014-Apr-19 16:05N 39°42' E 025°45'914.6
2014-Apr-19 15:27N 39°33' E 025°40'58212.1
2014-Apr-17 15:24N 36°28' E 014°00'10114.7
2014-Apr-17 08:29N 37°01' E 012°00'1314.5
2014-Apr-17 07:33N 37°07' E 011°46'1414.4
2014-Apr-17 06:33N 37°13' E 011°29'1514.8
2014-Apr-17 05:33N 37°20' E 011°13'36114.5
2014-Apr-16 04:33N 37°12' E 003°39'1514.7
2014-Apr-16 03:31N 37°10' E 003°20'1414.6
2014-Apr-16 02:33N 37°06' E 003°03'1615.6
2014-Apr-16 01:33N 37°04' E 002°44'1615.5
2014-Apr-16 00:33N 37°01' E 002°25'1414.5
2014-Apr-15 23:33N 36°58' E 002°07'36113.9
2014-Apr-14 21:34N 36°03' W 005°18'6 5.8
2014-Apr-14 20:33N 36°08' W 005°22'0 0.1
2014-Apr-14 19:33N 36°08' W 005°22'0 0.1
2014-Apr-14 18:33N 36°07' W 005°22'0 0.0
2014-Apr-14 17:33N 36°07' W 005°22'0 0.0
2014-Apr-14 16:33N 36°07' W 005°22'0 0.0
2014-Apr-14 15:33N 36°07' W 005°22'0 0.0
2014-Apr-14 14:33N 36°07' W 005°22'0 0.4
2014-Apr-14 13:34N 36°07' W 005°22'4 2.0
2014-Apr-14 11:34N 36°03' W 005°21'2512.6
2014-Apr-14 09:33N 35°55' W 005°51'  
2014-Apr-11 11:08N 35°33' W 006°39'3413.0
2014-Apr-11 08:28N 35°57' W 006°09'2613.8
2014-Apr-11 06:33N 35°57' W 005°37'1111.1
2014-Apr-11 05:33N 36°00' W 005°24'1211.6
2014-Apr-11 04:33N 36°04' W 005°10'  

Dump ship's entire track history

sailing weather and tide predictions

Gas Grouper — V7TZ2 — position and weather